sensor_id;sensor_type;location;lat;lon;timestamp;temperature;humidity
6986;DHT22;3533;51.246;6.850;2023-04-25T00:02:02;19.00;46.30
6986;DHT22;3533;51.246;6.850;2023-04-25T00:04:28;19.00;46.30
6986;DHT22;3533;51.246;6.850;2023-04-25T00:06:55;19.00;46.30
6986;DHT22;3533;51.246;6.850;2023-04-25T00:09:21;19.00;47.10
6986;DHT22;3533;51.246;6.850;2023-04-25T00:11:47;19.00;46.30
6986;DHT22;3533;51.246;6.850;2023-04-25T00:14:12;19.00;46.30
6986;DHT22;3533;51.246;6.850;2023-04-25T00:16:38;19.00;46.30
6986;DHT22;3533;51.246;6.850;2023-04-25T00:19:04;19.00;46.30
6986;DHT22;3533;51.246;6.850;2023-04-25T00:21:30;19.00;46.20
6986;DHT22;3533;51.246;6.850;2023-04-25T00:23:56;19.00;46.20
6986;DHT22;3533;51.246;6.850;2023-04-25T00:26:22;19.00;46.30
6986;DHT22;3533;51.246;6.850;2023-04-25T00:28:48;19.00;46.20
6986;DHT22;3533;51.246;6.850;2023-04-25T00:31:13;19.00;46.30
6986;DHT22;3533;51.246;6.850;2023-04-25T00:33:39;19.00;46.30
6986;DHT22;3533;51.246;6.850;2023-04-25T00:36:05;19.00;46.30
6986;DHT22;3533;51.246;6.850;2023-04-25T00:38:31;19.00;46.20
6986;DHT22;3533;51.246;6.850;2023-04-25T00:40:57;19.00;46.20
6986;DHT22;3533;51.246;6.850;2023-04-25T00:43:26;19.00;46.70
6986;DHT22;3533;51.246;6.850;2023-04-25T00:45:52;19.00;46.20
6986;DHT22;3533;51.246;6.850;2023-04-25T00:48:18;19.00;46.20
6986;DHT22;3533;51.246;6.850;2023-04-25T00:50:52;19.00;46.30
6986;DHT22;3533;51.246;6.850;2023-04-25T00:53:18;19.00;46.20
6986;DHT22;3533;51.246;6.850;2023-04-25T00:55:44;19.00;46.20
6986;DHT22;3533;51.246;6.850;2023-04-25T00:58:10;19.00;46.20
6986;DHT22;3533;51.246;6.850;2023-04-25T01:00:36;19.00;46.20
6986;DHT22;3533;51.246;6.850;2023-04-25T01:03:02;19.00;46.30
6986;DHT22;3533;51.246;6.850;2023-04-25T01:05:29;19.00;46.30
6986;DHT22;3533;51.246;6.850;2023-04-25T01:07:54;19.00;46.20
6986;DHT22;3533;51.246;6.850;2023-04-25T01:10:21;19.00;46.20
6986;DHT22;3533;51.246;6.850;2023-04-25T01:12:46;19.00;46.20
6986;DHT22;3533;51.246;6.850;2023-04-25T01:15:12;19.00;46.30
6986;DHT22;3533;51.246;6.850;2023-04-25T01:17:38;19.00;46.20
6986;DHT22;3533;51.246;6.850;2023-04-25T01:20:05;19.00;46.20
6986;DHT22;3533;51.246;6.850;2023-04-25T01:22:33;19.00;46.30
6986;DHT22;3533;51.246;6.850;2023-04-25T01:24:59;19.00;46.30
6986;DHT22;3533;51.246;6.850;2023-04-25T01:27:25;19.00;46.20
6986;DHT22;3533;51.246;6.850;2023-04-25T01:29:51;19.00;46.20
6986;DHT22;3533;51.246;6.850;2023-04-25T01:32:17;19.00;46.20
6986;DHT22;3533;51.246;6.850;2023-04-25T01:34:43;19.00;46.20
6986;DHT22;3533;51.246;6.850;2023-04-25T01:37:09;19.00;46.20
6986;DHT22;3533;51.246;6.850;2023-04-25T01:39:35;19.00;46.20
6986;DHT22;3533;51.246;6.850;2023-04-25T01:42:00;19.00;46.20
6986;DHT22;3533;51.246;6.850;2023-04-25T01:44:26;19.00;46.20
6986;DHT22;3533;51.246;6.850;2023-04-25T01:46:53;19.00;46.20
6986;DHT22;3533;51.246;6.850;2023-04-25T01:49:19;19.00;47.00
6986;DHT22;3533;51.246;6.850;2023-04-25T01:51:45;19.00;46.30
6986;DHT22;3533;51.246;6.850;2023-04-25T01:54:10;19.00;46.20
6986;DHT22;3533;51.246;6.850;2023-04-25T01:56:37;19.00;46.20
6986;DHT22;3533;51.246;6.850;2023-04-25T01:59:04;19.00;46.20
6986;DHT22;3533;51.246;6.850;2023-04-25T02:01:31;19.00;46.20
6986;DHT22;3533;51.246;6.850;2023-04-25T02:03:56;19.00;46.20
6986;DHT22;3533;51.246;6.850;2023-04-25T02:06:22;19.00;46.20
6986;DHT22;3533;51.246;6.850;2023-04-25T02:08:47;19.00;45.80
6986;DHT22;3533;51.246;6.850;2023-04-25T02:11:13;19.00;46.20
6986;DHT22;3533;51.246;6.850;2023-04-25T02:13:39;19.00;46.20
6986;DHT22;3533;51.246;6.850;2023-04-25T02:16:04;19.00;46.30
6986;DHT22;3533;51.246;6.850;2023-04-25T02:18:30;19.00;46.20
6986;DHT22;3533;51.246;6.850;2023-04-25T02:20:58;19.00;46.20
6986;DHT22;3533;51.246;6.850;2023-04-25T02:23:23;19.00;46.20
6986;DHT22;3533;51.246;6.850;2023-04-25T02:25:49;19.00;46.20
6986;DHT22;3533;51.246;6.850;2023-04-25T02:28:15;19.00;46.20
6986;DHT22;3533;51.246;6.850;2023-04-25T02:30:40;19.00;46.20
6986;DHT22;3533;51.246;6.850;2023-04-25T02:33:06;19.00;46.20
6986;DHT22;3533;51.246;6.850;2023-04-25T02:35:32;19.00;46.10
6986;DHT22;3533;51.246;6.850;2023-04-25T02:37:57;19.00;46.20
6986;DHT22;3533;51.246;6.850;2023-04-25T02:40:23;19.00;46.20
6986;DHT22;3533;51.246;6.850;2023-04-25T02:42:48;19.00;46.20
6986;DHT22;3533;51.246;6.850;2023-04-25T02:45:14;19.00;46.20
6986;DHT22;3533;51.246;6.850;2023-04-25T02:47:39;19.00;46.20
6986;DHT22;3533;51.246;6.850;2023-04-25T02:50:05;19.00;46.20
6986;DHT22;3533;51.246;6.850;2023-04-25T02:52:31;19.00;46.20
6986;DHT22;3533;51.246;6.850;2023-04-25T02:54:57;19.00;46.20
6986;DHT22;3533;51.246;6.850;2023-04-25T02:57:22;19.00;46.20
6986;DHT22;3533;51.246;6.850;2023-04-25T02:59:48;18.90;46.10
6986;DHT22;3533;51.246;6.850;2023-04-25T03:02:13;19.00;46.20
6986;DHT22;3533;51.246;6.850;2023-04-25T03:04:39;19.00;46.20
6986;DHT22;3533;51.246;6.850;2023-04-25T03:07:05;18.90;46.10
6986;DHT22;3533;51.246;6.850;2023-04-25T03:09:30;19.00;46.20
6986;DHT22;3533;51.246;6.850;2023-04-25T03:11:56;19.00;46.10
6986;DHT22;3533;51.246;6.850;2023-04-25T03:14:21;19.00;46.20
6986;DHT22;3533;51.246;6.850;2023-04-25T03:16:47;19.00;46.20
6986;DHT22;3533;51.246;6.850;2023-04-25T03:19:12;19.00;46.20
6986;DHT22;3533;51.246;6.850;2023-04-25T03:21:41;19.00;46.20
6986;DHT22;3533;51.246;6.850;2023-04-25T03:24:07;19.00;46.20
6986;DHT22;3533;51.246;6.850;2023-04-25T03:26:32;19.00;46.20
6986;DHT22;3533;51.246;6.850;2023-04-25T03:28:58;19.00;46.20
6986;DHT22;3533;51.246;6.850;2023-04-25T03:31:23;19.00;46.20
6986;DHT22;3533;51.246;6.850;2023-04-25T03:33:49;19.00;46.10
6986;DHT22;3533;51.246;6.850;2023-04-25T03:36:14;19.00;46.10
6986;DHT22;3533;51.246;6.850;2023-04-25T03:38:40;19.00;46.20
6986;DHT22;3533;51.246;6.850;2023-04-25T03:41:07;19.00;46.10
6986;DHT22;3533;51.246;6.850;2023-04-25T03:43:32;19.00;46.10
6986;DHT22;3533;51.246;6.850;2023-04-25T03:45:58;19.00;46.10
6986;DHT22;3533;51.246;6.850;2023-04-25T03:48:24;18.90;46.00
6986;DHT22;3533;51.246;6.850;2023-04-25T03:50:51;19.00;46.20
6986;DHT22;3533;51.246;6.850;2023-04-25T03:53:17;19.00;46.20
6986;DHT22;3533;51.246;6.850;2023-04-25T03:55:42;19.00;46.20
6986;DHT22;3533;51.246;6.850;2023-04-25T03:58:08;19.00;46.20
6986;DHT22;3533;51.246;6.850;2023-04-25T04:00:34;19.00;46.20
6986;DHT22;3533;51.246;6.850;2023-04-25T04:03:00;19.00;46.20
6986;DHT22;3533;51.246;6.850;2023-04-25T04:05:25;19.00;46.20
6986;DHT22;3533;51.246;6.850;2023-04-25T04:07:51;19.00;46.10
6986;DHT22;3533;51.246;6.850;2023-04-25T04:10:16;19.00;46.20
6986;DHT22;3533;51.246;6.850;2023-04-25T04:12:42;19.00;46.30
6986;DHT22;3533;51.246;6.850;2023-04-25T04:15:08;19.00;46.30
6986;DHT22;3533;51.246;6.850;2023-04-25T04:17:33;19.00;46.20
6986;DHT22;3533;51.246;6.850;2023-04-25T04:19:59;19.00;46.20
6986;DHT22;3533;51.246;6.850;2023-04-25T04:22:25;19.00;46.20
6986;DHT22;3533;51.246;6.850;2023-04-25T04:24:51;19.10;46.30
6986;DHT22;3533;51.246;6.850;2023-04-25T04:27:21;19.10;46.30
6986;DHT22;3533;51.246;6.850;2023-04-25T04:29:46;19.10;46.20
6986;DHT22;3533;51.246;6.850;2023-04-25T04:32:13;19.10;46.30
6986;DHT22;3533;51.246;6.850;2023-04-25T04:34:39;19.10;46.30
6986;DHT22;3533;51.246;6.850;2023-04-25T04:37:05;19.10;46.20
6986;DHT22;3533;51.246;6.850;2023-04-25T04:39:32;19.10;46.30
6986;DHT22;3533;51.246;6.850;2023-04-25T04:41:58;19.10;46.30
6986;DHT22;3533;51.246;6.850;2023-04-25T04:44:24;19.10;46.30
6986;DHT22;3533;51.246;6.850;2023-04-25T04:46:50;19.10;46.20
6986;DHT22;3533;51.246;6.850;2023-04-25T04:49:16;19.10;46.20
6986;DHT22;3533;51.246;6.850;2023-04-25T04:51:43;19.10;46.20
6986;DHT22;3533;51.246;6.850;2023-04-25T04:54:09;19.10;46.20
6986;DHT22;3533;51.246;6.850;2023-04-25T04:56:35;19.10;46.20
6986;DHT22;3533;51.246;6.850;2023-04-25T04:59:00;19.10;46.10
6986;DHT22;3533;51.246;6.850;2023-04-25T05:01:28;19.10;46.10
6986;DHT22;3533;51.246;6.850;2023-04-25T05:03:55;19.10;46.10
6986;DHT22;3533;51.246;6.850;2023-04-25T05:06:26;19.10;46.10
6986;DHT22;3533;51.246;6.850;2023-04-25T05:08:51;19.10;46.10
6986;DHT22;3533;51.246;6.850;2023-04-25T05:11:18;19.10;46.00
6986;DHT22;3533;51.246;6.850;2023-04-25T05:13:44;19.10;46.00
6986;DHT22;3533;51.246;6.850;2023-04-25T05:16:11;19.10;46.00
6986;DHT22;3533;51.246;6.850;2023-04-25T05:18:36;19.10;46.10
6986;DHT22;3533;51.246;6.850;2023-04-25T05:21:02;19.10;46.00
6986;DHT22;3533;51.246;6.850;2023-04-25T05:23:27;19.10;46.00
6986;DHT22;3533;51.246;6.850;2023-04-25T05:25:54;19.10;46.00
6986;DHT22;3533;51.246;6.850;2023-04-25T05:28:19;19.10;46.00
6986;DHT22;3533;51.246;6.850;2023-04-25T05:30:46;19.10;46.00
6986;DHT22;3533;51.246;6.850;2023-04-25T05:33:11;19.10;46.00
6986;DHT22;3533;51.246;6.850;2023-04-25T05:35:37;19.10;46.00
6986;DHT22;3533;51.246;6.850;2023-04-25T05:38:02;19.10;46.00
6986;DHT22;3533;51.246;6.850;2023-04-25T05:40:28;19.10;46.00
6986;DHT22;3533;51.246;6.850;2023-04-25T05:42:53;19.10;46.00
6986;DHT22;3533;51.246;6.850;2023-04-25T05:45:19;19.10;45.90
6986;DHT22;3533;51.246;6.850;2023-04-25T05:47:44;19.10;46.60
6986;DHT22;3533;51.246;6.850;2023-04-25T05:50:10;19.10;46.00
6986;DHT22;3533;51.246;6.850;2023-04-25T05:52:35;19.10;45.90
6986;DHT22;3533;51.246;6.850;2023-04-25T05:55:01;19.10;45.90
6986;DHT22;3533;51.246;6.850;2023-04-25T05:57:27;19.10;45.90
6986;DHT22;3533;51.246;6.850;2023-04-25T05:59:53;19.10;45.90
6986;DHT22;3533;51.246;6.850;2023-04-25T06:02:19;19.10;46.00
6986;DHT22;3533;51.246;6.850;2023-04-25T06:04:46;19.10;45.90
6986;DHT22;3533;51.246;6.850;2023-04-25T06:07:11;19.10;46.00
6986;DHT22;3533;51.246;6.850;2023-04-25T06:09:37;19.10;45.90
6986;DHT22;3533;51.246;6.850;2023-04-25T06:12:05;19.10;45.90
6986;DHT22;3533;51.246;6.850;2023-04-25T06:14:30;19.10;45.90
6986;DHT22;3533;51.246;6.850;2023-04-25T06:16:56;19.10;45.90
6986;DHT22;3533;51.246;6.850;2023-04-25T06:19:21;19.10;45.90
6986;DHT22;3533;51.246;6.850;2023-04-25T06:21:47;19.10;45.90
6986;DHT22;3533;51.246;6.850;2023-04-25T06:24:12;19.10;45.90
6986;DHT22;3533;51.246;6.850;2023-04-25T06:26:38;19.10;45.90
6986;DHT22;3533;51.246;6.850;2023-04-25T06:29:03;19.10;46.70
6986;DHT22;3533;51.246;6.850;2023-04-25T06:31:29;19.00;45.90
6986;DHT22;3533;51.246;6.850;2023-04-25T06:33:57;19.10;46.00
6986;DHT22;3533;51.246;6.850;2023-04-25T06:36:23;19.00;45.80
6986;DHT22;3533;51.246;6.850;2023-04-25T06:38:51;19.00;45.80
6986;DHT22;3533;51.246;6.850;2023-04-25T06:41:17;19.00;45.80
6986;DHT22;3533;51.246;6.850;2023-04-25T06:43:43;19.00;45.80
6986;DHT22;3533;51.246;6.850;2023-04-25T06:46:09;19.00;45.70
6986;DHT22;3533;51.246;6.850;2023-04-25T06:48:34;19.00;45.70
6986;DHT22;3533;51.246;6.850;2023-04-25T06:51:00;19.00;45.70
6986;DHT22;3533;51.246;6.850;2023-04-25T06:53:25;19.00;45.70
6986;DHT22;3533;51.246;6.850;2023-04-25T06:55:51;19.00;45.60
6986;DHT22;3533;51.246;6.850;2023-04-25T06:58:17;19.00;45.60
6986;DHT22;3533;51.246;6.850;2023-04-25T07:00:42;19.00;45.60
6986;DHT22;3533;51.246;6.850;2023-04-25T07:03:08;18.90;45.50
6986;DHT22;3533;51.246;6.850;2023-04-25T07:05:33;19.00;45.50
6986;DHT22;3533;51.246;6.850;2023-04-25T07:07:59;19.00;45.50
6986;DHT22;3533;51.246;6.850;2023-04-25T07:10:25;18.90;45.30
6986;DHT22;3533;51.246;6.850;2023-04-25T07:12:51;18.90;45.30
6986;DHT22;3533;51.246;6.850;2023-04-25T07:15:16;18.90;45.30
6986;DHT22;3533;51.246;6.850;2023-04-25T07:17:42;18.90;45.30
6986;DHT22;3533;51.246;6.850;2023-04-25T07:20:08;18.90;45.30
6986;DHT22;3533;51.246;6.850;2023-04-25T07:22:34;18.90;45.20
6986;DHT22;3533;51.246;6.850;2023-04-25T07:25:00;18.90;45.20
6986;DHT22;3533;51.246;6.850;2023-04-25T07:27:26;18.90;45.20
6986;DHT22;3533;51.246;6.850;2023-04-25T07:29:51;18.90;45.20
6986;DHT22;3533;51.246;6.850;2023-04-25T07:32:17;18.90;45.10
6986;DHT22;3533;51.246;6.850;2023-04-25T07:34:42;18.90;45.10
6986;DHT22;3533;51.246;6.850;2023-04-25T07:37:08;18.90;45.10
6986;DHT22;3533;51.246;6.850;2023-04-25T07:39:33;18.90;45.10
6986;DHT22;3533;51.246;6.850;2023-04-25T07:41:59;18.90;45.00
6986;DHT22;3533;51.246;6.850;2023-04-25T07:44:25;18.90;45.10
6986;DHT22;3533;51.246;6.850;2023-04-25T07:46:51;18.90;45.00
6986;DHT22;3533;51.246;6.850;2023-04-25T07:49:16;18.90;45.10
6986;DHT22;3533;51.246;6.850;2023-04-25T07:51:42;18.90;45.10
6986;DHT22;3533;51.246;6.850;2023-04-25T07:54:14;18.90;45.00
6986;DHT22;3533;51.246;6.850;2023-04-25T07:56:41;18.90;45.00
6986;DHT22;3533;51.246;6.850;2023-04-25T07:59:06;18.90;45.00
6986;DHT22;3533;51.246;6.850;2023-04-25T08:01:33;18.90;45.00
6986;DHT22;3533;51.246;6.850;2023-04-25T08:03:59;18.90;45.00
6986;DHT22;3533;51.246;6.850;2023-04-25T08:06:24;18.90;45.00
6986;DHT22;3533;51.246;6.850;2023-04-25T08:08:50;18.90;45.00
6986;DHT22;3533;51.246;6.850;2023-04-25T08:11:16;18.90;45.00
6986;DHT22;3533;51.246;6.850;2023-04-25T08:13:41;18.90;45.00
6986;DHT22;3533;51.246;6.850;2023-04-25T08:16:07;18.90;45.00
6986;DHT22;3533;51.246;6.850;2023-04-25T08:18:32;18.90;45.00
6986;DHT22;3533;51.246;6.850;2023-04-25T08:20:58;18.90;44.90
6986;DHT22;3533;51.246;6.850;2023-04-25T08:23:23;18.90;44.90
6986;DHT22;3533;51.246;6.850;2023-04-25T08:25:49;18.90;44.90
6986;DHT22;3533;51.246;6.850;2023-04-25T08:28:15;18.80;44.90
6986;DHT22;3533;51.246;6.850;2023-04-25T08:30:40;18.90;45.70
6986;DHT22;3533;51.246;6.850;2023-04-25T08:33:06;18.90;44.90
6986;DHT22;3533;51.246;6.850;2023-04-25T08:35:31;18.90;44.90
6986;DHT22;3533;51.246;6.850;2023-04-25T08:37:58;18.90;44.90
6986;DHT22;3533;51.246;6.850;2023-04-25T08:40:26;18.90;44.90
6986;DHT22;3533;51.246;6.850;2023-04-25T08:42:56;18.90;44.90
6986;DHT22;3533;51.246;6.850;2023-04-25T08:45:22;18.90;44.80
6986;DHT22;3533;51.246;6.850;2023-04-25T08:47:50;18.90;45.70
6986;DHT22;3533;51.246;6.850;2023-04-25T08:50:16;18.90;44.90
6986;DHT22;3533;51.246;6.850;2023-04-25T08:52:45;18.90;44.80
6986;DHT22;3533;51.246;6.850;2023-04-25T08:55:13;18.90;44.80
6986;DHT22;3533;51.246;6.850;2023-04-25T08:57:41;18.80;44.70
6986;DHT22;3533;51.246;6.850;2023-04-25T09:00:09;18.90;44.80
6986;DHT22;3533;51.246;6.850;2023-04-25T09:02:35;18.80;44.70
6986;DHT22;3533;51.246;6.850;2023-04-25T09:05:02;18.90;44.80
6986;DHT22;3533;51.246;6.850;2023-04-25T09:07:29;18.90;44.80
6986;DHT22;3533;51.246;6.850;2023-04-25T09:09:55;18.90;44.90
6986;DHT22;3533;51.246;6.850;2023-04-25T09:12:20;18.80;45.40
6986;DHT22;3533;51.246;6.850;2023-04-25T09:15:06;18.90;44.80
6986;DHT22;3533;51.246;6.850;2023-04-25T09:17:32;18.80;44.70
6986;DHT22;3533;51.246;6.850;2023-04-25T09:20:08;18.90;44.80
6986;DHT22;3533;51.246;6.850;2023-04-25T09:22:34;18.80;44.70
6986;DHT22;3533;51.246;6.850;2023-04-25T09:25:12;18.80;44.70
6986;DHT22;3533;51.246;6.850;2023-04-25T09:27:54;18.80;44.70
6986;DHT22;3533;51.246;6.850;2023-04-25T09:30:32;18.80;44.70
6986;DHT22;3533;51.246;6.850;2023-04-25T09:33:04;18.90;44.80
6986;DHT22;3533;51.246;6.850;2023-04-25T09:35:38;18.80;44.70
6986;DHT22;3533;51.246;6.850;2023-04-25T09:38:12;18.80;44.60
6986;DHT22;3533;51.246;6.850;2023-04-25T09:40:42;18.80;44.70
6986;DHT22;3533;51.246;6.850;2023-04-25T09:43:21;18.80;44.60
6986;DHT22;3533;51.246;6.850;2023-04-25T09:45:48;18.80;44.70
6986;DHT22;3533;51.246;6.850;2023-04-25T09:48:19;18.80;44.60
6986;DHT22;3533;51.246;6.850;2023-04-25T09:51:03;18.80;44.60
6986;DHT22;3533;51.246;6.850;2023-04-25T09:53:29;18.80;44.60
6986;DHT22;3533;51.246;6.850;2023-04-25T09:55:56;18.80;44.80
6986;DHT22;3533;51.246;6.850;2023-04-25T09:58:24;18.80;44.70
6986;DHT22;3533;51.246;6.850;2023-04-25T10:00:50;18.80;44.60
6986;DHT22;3533;51.246;6.850;2023-04-25T10:03:17;18.80;44.60
6986;DHT22;3533;51.246;6.850;2023-04-25T10:05:44;18.80;44.60
6986;DHT22;3533;51.246;6.850;2023-04-25T10:08:12;18.80;44.60
6986;DHT22;3533;51.246;6.850;2023-04-25T10:10:40;18.80;44.70
6986;DHT22;3533;51.246;6.850;2023-04-25T10:13:06;18.80;44.60
6986;DHT22;3533;51.246;6.850;2023-04-25T10:15:35;18.80;44.60
6986;DHT22;3533;51.246;6.850;2023-04-25T10:18:02;18.80;44.80
6986;DHT22;3533;51.246;6.850;2023-04-25T10:20:28;18.80;44.60
6986;DHT22;3533;51.246;6.850;2023-04-25T10:22:55;18.80;44.60
6986;DHT22;3533;51.246;6.850;2023-04-25T10:25:23;18.80;44.60
6986;DHT22;3533;51.246;6.850;2023-04-25T10:27:53;18.80;44.50
6986;DHT22;3533;51.246;6.850;2023-04-25T10:30:19;18.80;44.60
6986;DHT22;3533;51.246;6.850;2023-04-25T10:32:45;18.80;44.60
6986;DHT22;3533;51.246;6.850;2023-04-25T10:38:03;18.80;44.60
6986;DHT22;3533;51.246;6.850;2023-04-25T10:40:30;18.80;44.60
6986;DHT22;3533;51.246;6.850;2023-04-25T10:42:55;18.80;44.50
6986;DHT22;3533;51.246;6.850;2023-04-25T10:45:53;18.80;44.50
6986;DHT22;3533;51.246;6.850;2023-04-25T10:48:29;18.80;44.50
6986;DHT22;3533;51.246;6.850;2023-04-25T10:51:10;18.80;44.50
6986;DHT22;3533;51.246;6.850;2023-04-25T10:53:36;18.80;44.60
6986;DHT22;3533;51.246;6.850;2023-04-25T10:56:17;18.80;44.60
6986;DHT22;3533;51.246;6.850;2023-04-25T10:58:44;18.80;44.50
6986;DHT22;3533;51.246;6.850;2023-04-25T11:01:10;18.80;44.50
6986;DHT22;3533;51.246;6.850;2023-04-25T11:03:41;18.80;44.50
6986;DHT22;3533;51.246;6.850;2023-04-25T11:06:15;18.80;44.50
6986;DHT22;3533;51.246;6.850;2023-04-25T11:08:50;18.80;44.50
6986;DHT22;3533;51.246;6.850;2023-04-25T11:11:17;18.80;44.50
6986;DHT22;3533;51.246;6.850;2023-04-25T11:13:43;18.80;44.50
6986;DHT22;3533;51.246;6.850;2023-04-25T11:16:08;18.80;44.40
6986;DHT22;3533;51.246;6.850;2023-04-25T11:18:34;18.80;44.50
6986;DHT22;3533;51.246;6.850;2023-04-25T11:21:00;18.80;44.50
6986;DHT22;3533;51.246;6.850;2023-04-25T11:23:26;18.80;44.50
6986;DHT22;3533;51.246;6.850;2023-04-25T11:25:54;18.80;44.40
6986;DHT22;3533;51.246;6.850;2023-04-25T11:28:21;18.80;44.50
6986;DHT22;3533;51.246;6.850;2023-04-25T11:30:50;18.80;44.40
6986;DHT22;3533;51.246;6.850;2023-04-25T11:33:16;18.80;44.50
6986;DHT22;3533;51.246;6.850;2023-04-25T11:35:42;18.80;44.40
6986;DHT22;3533;51.246;6.850;2023-04-25T11:38:07;18.80;44.40
6986;DHT22;3533;51.246;6.850;2023-04-25T11:40:35;18.80;44.40
6986;DHT22;3533;51.246;6.850;2023-04-25T11:43:00;18.80;44.30
6986;DHT22;3533;51.246;6.850;2023-04-25T11:45:27;18.80;44.30
6986;DHT22;3533;51.246;6.850;2023-04-25T11:47:52;18.80;44.30
6986;DHT22;3533;51.246;6.850;2023-04-25T11:50:18;18.80;44.40
6986;DHT22;3533;51.246;6.850;2023-04-25T11:52:45;18.80;44.40
6986;DHT22;3533;51.246;6.850;2023-04-25T11:55:17;18.80;44.30
6986;DHT22;3533;51.246;6.850;2023-04-25T11:57:44;18.80;44.40
6986;DHT22;3533;51.246;6.850;2023-04-25T12:00:15;18.80;44.30
6986;DHT22;3533;51.246;6.850;2023-04-25T12:02:52;18.80;44.40
6986;DHT22;3533;51.246;6.850;2023-04-25T12:05:19;18.80;44.40
6986;DHT22;3533;51.246;6.850;2023-04-25T12:07:46;18.80;44.40
6986;DHT22;3533;51.246;6.850;2023-04-25T12:10:13;18.80;44.40
6986;DHT22;3533;51.246;6.850;2023-04-25T12:12:43;18.80;44.30
6986;DHT22;3533;51.246;6.850;2023-04-25T12:17:36;18.80;44.30
6986;DHT22;3533;51.246;6.850;2023-04-25T12:20:12;18.80;44.30
6986;DHT22;3533;51.246;6.850;2023-04-25T12:22:41;18.80;44.40
6986;DHT22;3533;51.246;6.850;2023-04-25T12:25:12;18.80;44.30
6986;DHT22;3533;51.246;6.850;2023-04-25T12:27:39;18.80;44.30
6986;DHT22;3533;51.246;6.850;2023-04-25T12:30:09;18.70;44.30
6986;DHT22;3533;51.246;6.850;2023-04-25T12:32:36;18.80;44.40
6986;DHT22;3533;51.246;6.850;2023-04-25T12:35:03;18.80;44.30
6986;DHT22;3533;51.246;6.850;2023-04-25T12:37:29;18.80;44.30
6986;DHT22;3533;51.246;6.850;2023-04-25T12:39:55;18.80;44.40
6986;DHT22;3533;51.246;6.850;2023-04-25T12:42:21;18.70;44.30
6986;DHT22;3533;51.246;6.850;2023-04-25T12:44:46;18.80;44.30
6986;DHT22;3533;51.246;6.850;2023-04-25T12:47:12;18.80;44.30
6986;DHT22;3533;51.246;6.850;2023-04-25T12:49:37;18.70;44.20
6986;DHT22;3533;51.246;6.850;2023-04-25T12:52:03;18.70;44.20
6986;DHT22;3533;51.246;6.850;2023-04-25T12:54:28;18.80;44.30
6986;DHT22;3533;51.246;6.850;2023-04-25T12:56:54;18.80;44.30
6986;DHT22;3533;51.246;6.850;2023-04-25T12:59:20;18.80;44.30
6986;DHT22;3533;51.246;6.850;2023-04-25T13:01:46;18.80;44.30
6986;DHT22;3533;51.246;6.850;2023-04-25T13:04:12;18.80;44.30
6986;DHT22;3533;51.246;6.850;2023-04-25T13:06:38;18.80;44.30
6986;DHT22;3533;51.246;6.850;2023-04-25T13:09:03;18.80;44.30
6986;DHT22;3533;51.246;6.850;2023-04-25T13:11:29;18.70;44.20
6986;DHT22;3533;51.246;6.850;2023-04-25T13:13:56;18.80;44.30
6986;DHT22;3533;51.246;6.850;2023-04-25T13:16:21;18.70;44.20
6986;DHT22;3533;51.246;6.850;2023-04-25T13:18:47;18.80;44.30
6986;DHT22;3533;51.246;6.850;2023-04-25T13:21:13;18.80;44.20
6986;DHT22;3533;51.246;6.850;2023-04-25T13:23:38;18.80;44.20
6986;DHT22;3533;51.246;6.850;2023-04-25T13:26:04;18.80;44.10
6986;DHT22;3533;51.246;6.850;2023-04-25T13:28:30;18.80;44.20
6986;DHT22;3533;51.246;6.850;2023-04-25T13:30:55;18.80;44.20
6986;DHT22;3533;51.246;6.850;2023-04-25T13:33:21;18.80;44.10
6986;DHT22;3533;51.246;6.850;2023-04-25T13:35:48;18.80;44.10
6986;DHT22;3533;51.246;6.850;2023-04-25T13:38:20;18.80;44.10
6986;DHT22;3533;51.246;6.850;2023-04-25T13:40:46;18.80;44.10
6986;DHT22;3533;51.246;6.850;2023-04-25T13:43:12;18.80;44.10
6986;DHT22;3533;51.246;6.850;2023-04-25T13:45:37;18.80;44.20
6986;DHT22;3533;51.246;6.850;2023-04-25T13:48:03;18.70;44.00
6986;DHT22;3533;51.246;6.850;2023-04-25T13:50:28;18.70;44.10
6986;DHT22;3533;51.246;6.850;2023-04-25T13:52:54;18.70;44.80
6986;DHT22;3533;51.246;6.850;2023-04-25T13:55:19;18.70;44.00
6986;DHT22;3533;51.246;6.850;2023-04-25T13:57:45;18.80;44.10
6986;DHT22;3533;51.246;6.850;2023-04-25T14:00:11;18.70;44.90
6986;DHT22;3533;51.246;6.850;2023-04-25T14:02:37;18.70;44.00
6986;DHT22;3533;51.246;6.850;2023-04-25T14:05:06;18.70;44.00
6986;DHT22;3533;51.246;6.850;2023-04-25T14:07:33;18.70;44.00
6986;DHT22;3533;51.246;6.850;2023-04-25T14:10:00;18.70;44.00
6986;DHT22;3533;51.246;6.850;2023-04-25T14:12:26;18.70;44.00
6986;DHT22;3533;51.246;6.850;2023-04-25T14:14:51;18.70;44.00
6986;DHT22;3533;51.246;6.850;2023-04-25T14:17:18;18.70;44.00
6986;DHT22;3533;51.246;6.850;2023-04-25T14:19:44;18.70;44.00
6986;DHT22;3533;51.246;6.850;2023-04-25T14:22:11;18.70;44.00
6986;DHT22;3533;51.246;6.850;2023-04-25T14:24:36;18.70;44.00
6986;DHT22;3533;51.246;6.850;2023-04-25T14:27:03;18.70;44.00
6986;DHT22;3533;51.246;6.850;2023-04-25T14:29:29;18.70;44.10
6986;DHT22;3533;51.246;6.850;2023-04-25T14:31:55;18.70;44.00
6986;DHT22;3533;51.246;6.850;2023-04-25T14:34:22;18.70;44.00
6986;DHT22;3533;51.246;6.850;2023-04-25T14:36:48;18.70;44.00
6986;DHT22;3533;51.246;6.850;2023-04-25T14:39:13;18.70;44.10
6986;DHT22;3533;51.246;6.850;2023-04-25T14:41:40;18.70;44.00
6986;DHT22;3533;51.246;6.850;2023-04-25T14:44:05;18.70;44.10
6986;DHT22;3533;51.246;6.850;2023-04-25T14:46:31;18.70;44.10
6986;DHT22;3533;51.246;6.850;2023-04-25T14:48:56;18.70;44.10
6986;DHT22;3533;51.246;6.850;2023-04-25T14:51:22;18.70;44.10
6986;DHT22;3533;51.246;6.850;2023-04-25T14:53:48;18.70;44.10
6986;DHT22;3533;51.246;6.850;2023-04-25T14:56:14;18.70;44.00
6986;DHT22;3533;51.246;6.850;2023-04-25T14:58:39;18.70;44.10
6986;DHT22;3533;51.246;6.850;2023-04-25T15:01:05;18.70;44.10
6986;DHT22;3533;51.246;6.850;2023-04-25T15:03:32;18.70;44.10
6986;DHT22;3533;51.246;6.850;2023-04-25T15:05:57;18.70;44.10
6986;DHT22;3533;51.246;6.850;2023-04-25T15:08:23;18.70;44.10
6986;DHT22;3533;51.246;6.850;2023-04-25T15:10:48;18.70;44.10
6986;DHT22;3533;51.246;6.850;2023-04-25T15:13:14;18.70;44.10
6986;DHT22;3533;51.246;6.850;2023-04-25T15:15:40;18.70;44.10
6986;DHT22;3533;51.246;6.850;2023-04-25T15:18:06;18.70;44.20
6986;DHT22;3533;51.246;6.850;2023-04-25T15:20:31;18.70;44.20
6986;DHT22;3533;51.246;6.850;2023-04-25T15:22:57;18.70;44.30
6986;DHT22;3533;51.246;6.850;2023-04-25T15:25:23;18.70;44.20
6986;DHT22;3533;51.246;6.850;2023-04-25T15:27:49;18.70;44.20
6986;DHT22;3533;51.246;6.850;2023-04-25T15:30:15;18.70;44.20
6986;DHT22;3533;51.246;6.850;2023-04-25T15:32:42;18.70;44.20
6986;DHT22;3533;51.246;6.850;2023-04-25T15:35:08;18.70;44.20
6986;DHT22;3533;51.246;6.850;2023-04-25T15:37:34;18.70;44.10
6986;DHT22;3533;51.246;6.850;2023-04-25T15:40:09;18.70;44.10
6986;DHT22;3533;51.246;6.850;2023-04-25T15:42:36;18.70;44.10
6986;DHT22;3533;51.246;6.850;2023-04-25T15:45:04;18.70;44.00
6986;DHT22;3533;51.246;6.850;2023-04-25T15:47:29;18.70;44.00
6986;DHT22;3533;51.246;6.850;2023-04-25T15:49:55;18.70;44.00
6986;DHT22;3533;51.246;6.850;2023-04-25T15:52:21;18.70;44.00
6986;DHT22;3533;51.246;6.850;2023-04-25T15:54:46;18.70;44.00
6986;DHT22;3533;51.246;6.850;2023-04-25T15:57:12;18.80;44.10
6986;DHT22;3533;51.246;6.850;2023-04-25T15:59:38;18.70;44.00
6986;DHT22;3533;51.246;6.850;2023-04-25T16:02:03;18.70;44.00
6986;DHT22;3533;51.246;6.850;2023-04-25T16:04:29;18.70;43.90